sensor_id;sensor_type;location;lat;lon;timestamp;P1;durP1;ratioP1;P2;durP2;ratioP2
54428;SDS011;40337;52.978;6.310;2023-01-19T00:02:13;7.80;;;4.68;;
54428;SDS011;40337;52.978;6.310;2023-01-19T00:04:39;7.30;;;3.75;;
54428;SDS011;40337;52.978;6.310;2023-01-19T00:07:04;5.70;;;3.40;;
54428;SDS011;40337;52.978;6.310;2023-01-19T00:09:31;7.95;;;3.85;;
54428;SDS011;40337;52.978;6.310;2023-01-19T00:11:57;6.95;;;3.05;;
54428;SDS011;40337;52.978;6.310;2023-01-19T00:14:23;7.07;;;3.00;;
54428;SDS011;40337;52.978;6.310;2023-01-19T00:16:49;7.35;;;2.00;;
54428;SDS011;40337;52.978;6.310;2023-01-19T00:19:14;5.80;;;2.00;;
54428;SDS011;40337;52.978;6.310;2023-01-19T00:21:40;5.00;;;1.40;;
54428;SDS011;40337;52.978;6.310;2023-01-19T00:24:06;4.68;;;1.40;;
54428;SDS011;40337;52.978;6.310;2023-01-19T00:26:31;5.30;;;1.20;;
54428;SDS011;40337;52.978;6.310;2023-01-19T00:28:57;3.30;;;1.15;;
54428;SDS011;40337;52.978;6.310;2023-01-19T00:31:23;3.58;;;1.10;;
54428;SDS011;40337;52.978;6.310;2023-01-19T00:33:48;4.30;;;1.02;;
54428;SDS011;40337;52.978;6.310;2023-01-19T00:36:15;3.88;;;1.10;;
54428;SDS011;40337;52.978;6.310;2023-01-19T00:38:41;4.78;;;1.02;;
54428;SDS011;40337;52.978;6.310;2023-01-19T00:41:06;4.13;;;1.10;;
54428;SDS011;40337;52.978;6.310;2023-01-19T00:43:32;6.43;;;1.50;;
54428;SDS011;40337;52.978;6.310;2023-01-19T00:45:58;5.18;;;1.23;;
54428;SDS011;40337;52.978;6.310;2023-01-19T00:48:24;3.90;;;1.50;;
54428;SDS011;40337;52.978;6.310;2023-01-19T00:50:50;5.47;;;1.60;;
54428;SDS011;40337;52.978;6.310;2023-01-19T00:53:15;9.45;;;1.98;;
54428;SDS011;40337;52.978;6.310;2023-01-19T00:55:41;4.57;;;1.80;;
54428;SDS011;40337;52.978;6.310;2023-01-19T00:58:06;6.00;;;2.10;;
54428;SDS011;40337;52.978;6.310;2023-01-19T01:00:32;5.30;;;2.35;;
54428;SDS011;40337;52.978;6.310;2023-01-19T01:02:58;4.40;;;2.60;;
54428;SDS011;40337;52.978;6.310;2023-01-19T01:05:24;7.47;;;2.92;;
54428;SDS011;40337;52.978;6.310;2023-01-19T01:07:50;5.63;;;3.30;;
54428;SDS011;40337;52.978;6.310;2023-01-19T01:10:17;5.20;;;3.78;;
54428;SDS011;40337;52.978;6.310;2023-01-19T01:12:44;8.93;;;4.43;;
54428;SDS011;40337;52.978;6.310;2023-01-19T01:15:11;6.63;;;4.32;;
54428;SDS011;40337;52.978;6.310;2023-01-19T01:17:38;6.35;;;4.28;;
54428;SDS011;40337;52.978;6.310;2023-01-19T01:20:15;7.22;;;4.63;;
54428;SDS011;40337;52.978;6.310;2023-01-19T01:22:43;6.40;;;4.60;;
54428;SDS011;40337;52.978;6.310;2023-01-19T01:25:17;7.32;;;4.50;;
54428;SDS011;40337;52.978;6.310;2023-01-19T01:27:46;7.82;;;4.88;;
54428;SDS011;40337;52.978;6.310;2023-01-19T01:30:12;6.63;;;4.88;;
54428;SDS011;40337;52.978;6.310;2023-01-19T01:32:39;7.40;;;4.90;;
54428;SDS011;40337;52.978;6.310;2023-01-19T01:35:05;8.35;;;5.60;;
54428;SDS011;40337;52.978;6.310;2023-01-19T01:37:32;6.60;;;5.25;;
54428;SDS011;40337;52.978;6.310;2023-01-19T01:39:58;6.80;;;5.70;;
54428;SDS011;40337;52.978;6.310;2023-01-19T01:42:25;6.82;;;5.55;;
54428;SDS011;40337;52.978;6.310;2023-01-19T01:44:54;7.55;;;5.85;;
54428;SDS011;40337;52.978;6.310;2023-01-19T01:47:23;6.72;;;5.65;;
54428;SDS011;40337;52.978;6.310;2023-01-19T01:50:10;8.00;;;6.15;;
54428;SDS011;40337;52.978;6.310;2023-01-19T01:52:43;7.00;;;5.88;;
54428;SDS011;40337;52.978;6.310;2023-01-19T01:55:14;7.55;;;5.97;;
54428;SDS011;40337;52.978;6.310;2023-01-19T01:57:42;8.05;;;5.95;;
54428;SDS011;40337;52.978;6.310;2023-01-19T02:00:12;8.85;;;6.03;;
54428;SDS011;40337;52.978;6.310;2023-01-19T02:02:38;8.80;;;5.60;;
54428;SDS011;40337;52.978;6.310;2023-01-19T02:05:25;7.60;;;6.20;;
54428;SDS011;40337;52.978;6.310;2023-01-19T02:07:58;8.95;;;6.28;;
54428;SDS011;40337;52.978;6.310;2023-01-19T02:10:51;8.65;;;6.53;;
54428;SDS011;40337;52.978;6.310;2023-01-19T02:13:37;8.98;;;6.95;;
54428;SDS011;40337;52.978;6.310;2023-01-19T02:16:07;9.93;;;7.00;;
54428;SDS011;40337;52.978;6.310;2023-01-19T02:18:34;8.20;;;6.85;;
54428;SDS011;40337;52.978;6.310;2023-01-19T02:21:04;10.43;;;7.28;;
54428;SDS011;40337;52.978;6.310;2023-01-19T02:23:51;9.55;;;6.75;;
54428;SDS011;40337;52.978;6.310;2023-01-19T02:26:23;9.02;;;7.30;;
54428;SDS011;40337;52.978;6.310;2023-01-19T02:28:55;11.50;;;7.55;;
54428;SDS011;40337;52.978;6.310;2023-01-19T02:31:23;8.50;;;6.90;;
54428;SDS011;40337;52.978;6.310;2023-01-19T02:33:49;9.90;;;7.25;;
54428;SDS011;40337;52.978;6.310;2023-01-19T02:36:16;9.68;;;7.00;;
54428;SDS011;40337;52.978;6.310;2023-01-19T02:38:46;9.85;;;6.60;;
54428;SDS011;40337;52.978;6.310;2023-01-19T02:41:15;8.95;;;6.72;;
54428;SDS011;40337;52.978;6.310;2023-01-19T02:43:43;8.02;;;6.10;;
54428;SDS011;40337;52.978;6.310;2023-01-19T02:46:11;8.10;;;6.25;;
54428;SDS011;40337;52.978;6.310;2023-01-19T02:48:39;8.60;;;6.10;;
54428;SDS011;40337;52.978;6.310;2023-01-19T02:51:24;9.15;;;6.22;;
54428;SDS011;40337;52.978;6.310;2023-01-19T02:54:08;9.05;;;6.47;;
54428;SDS011;40337;52.978;6.310;2023-01-19T03:09:54;6.20;;;4.55;;
54428;SDS011;40337;52.978;6.310;2023-01-19T03:15:12;5.20;;;3.60;;
54428;SDS011;40337;52.978;6.310;2023-01-19T03:17:43;6.28;;;3.15;;
54428;SDS011;40337;52.978;6.310;2023-01-19T03:20:11;6.53;;;3.30;;
54428;SDS011;40337;52.978;6.310;2023-01-19T03:22:39;6.35;;;3.00;;
54428;SDS011;40337;52.978;6.310;2023-01-19T03:25:06;5.55;;;2.80;;
54428;SDS011;40337;52.978;6.310;2023-01-19T03:27:34;5.95;;;2.67;;
54428;SDS011;40337;52.978;6.310;2023-01-19T03:30:14;6.13;;;2.55;;
54428;SDS011;40337;52.978;6.310;2023-01-19T03:32:55;5.63;;;2.60;;
54428;SDS011;40337;52.978;6.310;2023-01-19T03:35:28;6.25;;;2.35;;
54428;SDS011;40337;52.978;6.310;2023-01-19T03:37:57;4.20;;;2.17;;
54428;SDS011;40337;52.978;6.310;2023-01-19T03:40:27;4.90;;;2.03;;
54428;SDS011;40337;52.978;6.310;2023-01-19T03:42:54;4.65;;;1.70;;
54428;SDS011;40337;52.978;6.310;2023-01-19T03:45:21;4.82;;;1.65;;
54428;SDS011;40337;52.978;6.310;2023-01-19T03:47:47;4.05;;;1.40;;
54428;SDS011;40337;52.978;6.310;2023-01-19T03:50:21;3.33;;;1.25;;
54428;SDS011;40337;52.978;6.310;2023-01-19T03:53:01;3.15;;;1.08;;
54428;SDS011;40337;52.978;6.310;2023-01-19T03:55:38;3.92;;;1.20;;
54428;SDS011;40337;52.978;6.310;2023-01-19T03:58:06;2.75;;;1.02;;
54428;SDS011;40337;52.978;6.310;2023-01-19T04:00:32;5.75;;;1.30;;
54428;SDS011;40337;52.978;6.310;2023-01-19T04:03:00;5.68;;;1.10;;
54428;SDS011;40337;52.978;6.310;2023-01-19T04:05:26;5.10;;;1.10;;
54428;SDS011;40337;52.978;6.310;2023-01-19T04:07:53;5.97;;;1.08;;
54428;SDS011;40337;52.978;6.310;2023-01-19T04:10:19;5.63;;;1.10;;
54428;SDS011;40337;52.978;6.310;2023-01-19T04:12:45;4.57;;;1.00;;
54428;SDS011;40337;52.978;6.310;2023-01-19T04:15:11;5.25;;;1.20;;
54428;SDS011;40337;52.978;6.310;2023-01-19T04:17:37;4.80;;;1.40;;
54428;SDS011;40337;52.978;6.310;2023-01-19T04:20:03;6.65;;;1.50;;
54428;SDS011;40337;52.978;6.310;2023-01-19T04:22:30;6.50;;;1.20;;
54428;SDS011;40337;52.978;6.310;2023-01-19T04:24:55;6.07;;;1.30;;
54428;SDS011;40337;52.978;6.310;2023-01-19T04:27:21;7.72;;;1.63;;
54428;SDS011;40337;52.978;6.310;2023-01-19T04:29:47;7.45;;;1.80;;
54428;SDS011;40337;52.978;6.310;2023-01-19T04:32:12;6.85;;;1.63;;
54428;SDS011;40337;52.978;6.310;2023-01-19T04:34:38;5.45;;;1.77;;
54428;SDS011;40337;52.978;6.310;2023-01-19T04:37:04;5.85;;;1.55;;
54428;SDS011;40337;52.978;6.310;2023-01-19T04:39:29;7.50;;;1.50;;
54428;SDS011;40337;52.978;6.310;2023-01-19T04:41:55;7.45;;;1.33;;
54428;SDS011;40337;52.978;6.310;2023-01-19T04:44:21;8.95;;;1.90;;
54428;SDS011;40337;52.978;6.310;2023-01-19T04:46:48;5.30;;;1.60;;
54428;SDS011;40337;52.978;6.310;2023-01-19T04:49:15;8.32;;;1.85;;
54428;SDS011;40337;52.978;6.310;2023-01-19T04:51:41;9.23;;;1.77;;
54428;SDS011;40337;52.978;6.310;2023-01-19T04:54:06;7.65;;;1.70;;
54428;SDS011;40337;52.978;6.310;2023-01-19T04:56:33;7.32;;;1.63;;
54428;SDS011;40337;52.978;6.310;2023-01-19T04:58:59;7.55;;;1.60;;
54428;SDS011;40337;52.978;6.310;2023-01-19T05:01:25;7.85;;;1.92;;
54428;SDS011;40337;52.978;6.310;2023-01-19T05:03:51;8.15;;;1.90;;
54428;SDS011;40337;52.978;6.310;2023-01-19T05:06:16;6.53;;;1.63;;
54428;SDS011;40337;52.978;6.310;2023-01-19T05:08:42;10.32;;;2.00;;
54428;SDS011;40337;52.978;6.310;2023-01-19T05:11:07;7.15;;;2.10;;
54428;SDS011;40337;52.978;6.310;2023-01-19T05:13:33;9.80;;;1.70;;
54428;SDS011;40337;52.978;6.310;2023-01-19T05:15:59;7.20;;;1.50;;
54428;SDS011;40337;52.978;6.310;2023-01-19T05:18:25;6.70;;;1.60;;
54428;SDS011;40337;52.978;6.310;2023-01-19T05:20:50;8.40;;;1.60;;
54428;SDS011;40337;52.978;6.310;2023-01-19T05:23:16;4.60;;;1.30;;
54428;SDS011;40337;52.978;6.310;2023-01-19T05:25:41;7.07;;;1.30;;
54428;SDS011;40337;52.978;6.310;2023-01-19T05:28:08;4.68;;;1.40;;
54428;SDS011;40337;52.978;6.310;2023-01-19T05:30:34;8.23;;;1.70;;
54428;SDS011;40337;52.978;6.310;2023-01-19T05:33:00;4.90;;;1.52;;
54428;SDS011;40337;52.978;6.310;2023-01-19T05:35:25;6.18;;;1.77;;
54428;SDS011;40337;52.978;6.310;2023-01-19T05:37:51;5.68;;;1.60;;
54428;SDS011;40337;52.978;6.310;2023-01-19T05:40:16;8.48;;;1.50;;
54428;SDS011;40337;52.978;6.310;2023-01-19T05:42:42;7.78;;;1.65;;
54428;SDS011;40337;52.978;6.310;2023-01-19T05:45:08;6.07;;;1.70;;
54428;SDS011;40337;52.978;6.310;2023-01-19T05:47:33;4.82;;;1.60;;
54428;SDS011;40337;52.978;6.310;2023-01-19T05:49:59;8.07;;;1.48;;
54428;SDS011;40337;52.978;6.310;2023-01-19T05:52:25;6.75;;;1.67;;
54428;SDS011;40337;52.978;6.310;2023-01-19T05:54:50;6.75;;;1.55;;
54428;SDS011;40337;52.978;6.310;2023-01-19T05:57:17;7.25;;;1.63;;
54428;SDS011;40337;52.978;6.310;2023-01-19T05:59:42;10.43;;;1.60;;
54428;SDS011;40337;52.978;6.310;2023-01-19T06:02:08;6.40;;;1.42;;
54428;SDS011;40337;52.978;6.310;2023-01-19T06:04:34;7.00;;;1.48;;
54428;SDS011;40337;52.978;6.310;2023-01-19T06:06:59;9.70;;;1.80;;
54428;SDS011;40337;52.978;6.310;2023-01-19T06:09:26;6.05;;;1.55;;
54428;SDS011;40337;52.978;6.310;2023-01-19T06:11:51;9.63;;;1.75;;
54428;SDS011;40337;52.978;6.310;2023-01-19T06:14:19;6.65;;;1.90;;
54428;SDS011;40337;52.978;6.310;2023-01-19T06:16:45;8.48;;;2.08;;
54428;SDS011;40337;52.978;6.310;2023-01-19T06:19:10;9.15;;;1.50;;
54428;SDS011;40337;52.978;6.310;2023-01-19T06:21:36;5.93;;;1.50;;
54428;SDS011;40337;52.978;6.310;2023-01-19T06:24:02;8.20;;;1.52;;
54428;SDS011;40337;52.978;6.310;2023-01-19T06:26:28;11.13;;;2.00;;
54428;SDS011;40337;52.978;6.310;2023-01-19T06:28:53;8.07;;;1.98;;
54428;SDS011;40337;52.978;6.310;2023-01-19T06:31:19;7.40;;;1.70;;
54428;SDS011;40337;52.978;6.310;2023-01-19T06:33:45;7.95;;;1.90;;
54428;SDS011;40337;52.978;6.310;2023-01-19T06:36:11;7.15;;;2.00;;
54428;SDS011;40337;52.978;6.310;2023-01-19T06:38:36;8.07;;;2.13;;
54428;SDS011;40337;52.978;6.310;2023-01-19T06:41:02;13.30;;;2.35;;
54428;SDS011;40337;52.978;6.310;2023-01-19T06:43:29;10.38;;;2.15;;
54428;SDS011;40337;52.978;6.310;2023-01-19T06:45:55;11.10;;;2.55;;
54428;SDS011;40337;52.978;6.310;2023-01-19T06:48:21;11.80;;;2.47;;
54428;SDS011;40337;52.978;6.310;2023-01-19T06:50:46;11.45;;;2.30;;
54428;SDS011;40337;52.978;6.310;2023-01-19T06:53:13;9.88;;;2.10;;
54428;SDS011;40337;52.978;6.310;2023-01-19T06:55:40;10.25;;;2.35;;
54428;SDS011;40337;52.978;6.310;2023-01-19T06:58:07;12.00;;;2.33;;
54428;SDS011;40337;52.978;6.310;2023-01-19T07:00:32;11.68;;;2.30;;
54428;SDS011;40337;52.978;6.310;2023-01-19T07:02:58;12.30;;;2.50;;
54428;SDS011;40337;52.978;6.310;2023-01-19T07:05:23;10.20;;;2.25;;
54428;SDS011;40337;52.978;6.310;2023-01-19T07:07:55;10.68;;;2.47;;
54428;SDS011;40337;52.978;6.310;2023-01-19T07:10:22;13.35;;;2.97;;
54428;SDS011;40337;52.978;6.310;2023-01-19T07:12:48;12.23;;;2.70;;
54428;SDS011;40337;52.978;6.310;2023-01-19T07:15:15;8.50;;;2.10;;
54428;SDS011;40337;52.978;6.310;2023-01-19T07:17:42;12.50;;;2.58;;
54428;SDS011;40337;52.978;6.310;2023-01-19T07:20:11;8.75;;;2.72;;
54428;SDS011;40337;52.978;6.310;2023-01-19T07:22:38;9.93;;;2.40;;
54428;SDS011;40337;52.978;6.310;2023-01-19T07:25:10;9.68;;;2.70;;
54428;SDS011;40337;52.978;6.310;2023-01-19T07:27:37;10.52;;;2.83;;
54428;SDS011;40337;52.978;6.310;2023-01-19T07:30:02;12.45;;;3.03;;
54428;SDS011;40337;52.978;6.310;2023-01-19T07:32:28;17.02;;;3.88;;
54428;SDS011;40337;52.978;6.310;2023-01-19T07:34:54;10.35;;;2.60;;
54428;SDS011;40337;52.978;6.310;2023-01-19T07:37:20;10.82;;;2.80;;
54428;SDS011;40337;52.978;6.310;2023-01-19T07:39:45;14.65;;;2.90;;
54428;SDS011;40337;52.978;6.310;2023-01-19T07:42:11;10.93;;;2.10;;
54428;SDS011;40337;52.978;6.310;2023-01-19T07:44:36;9.68;;;2.10;;
54428;SDS011;40337;52.978;6.310;2023-01-19T07:47:02;10.93;;;2.47;;
54428;SDS011;40337;52.978;6.310;2023-01-19T07:49:30;13.73;;;2.50;;
54428;SDS011;40337;52.978;6.310;2023-01-19T07:51:55;8.73;;;2.30;;
54428;SDS011;40337;52.978;6.310;2023-01-19T07:54:21;9.25;;;2.30;;
54428;SDS011;40337;52.978;6.310;2023-01-19T07:56:46;10.75;;;2.53;;
54428;SDS011;40337;52.978;6.310;2023-01-19T07:59:12;14.23;;;2.80;;
54428;SDS011;40337;52.978;6.310;2023-01-19T08:01:39;12.20;;;2.50;;
54428;SDS011;40337;52.978;6.310;2023-01-19T08:04:05;10.80;;;2.60;;
54428;SDS011;40337;52.978;6.310;2023-01-19T08:06:34;11.40;;;2.63;;
54428;SDS011;40337;52.978;6.310;2023-01-19T08:09:02;13.18;;;2.70;;
54428;SDS011;40337;52.978;6.310;2023-01-19T08:11:31;12.32;;;2.70;;
54428;SDS011;40337;52.978;6.310;2023-01-19T08:13:57;12.43;;;2.60;;
54428;SDS011;40337;52.978;6.310;2023-01-19T08:16:23;11.52;;;2.58;;
54428;SDS011;40337;52.978;6.310;2023-01-19T08:18:49;11.43;;;2.72;;
54428;SDS011;40337;52.978;6.310;2023-01-19T08:21:15;13.60;;;3.60;;
54428;SDS011;40337;52.978;6.310;2023-01-19T08:23:40;13.50;;;3.28;;
54428;SDS011;40337;52.978;6.310;2023-01-19T08:31:18;15.10;;;3.35;;
54428;SDS011;40337;52.978;6.310;2023-01-19T08:33:43;13.35;;;3.80;;
54428;SDS011;40337;52.978;6.310;2023-01-19T08:36:09;13.60;;;3.35;;
54428;SDS011;40337;52.978;6.310;2023-01-19T08:38:34;15.48;;;3.67;;
54428;SDS011;40337;52.978;6.310;2023-01-19T08:41:00;16.60;;;3.38;;
54428;SDS011;40337;52.978;6.310;2023-01-19T08:43:26;15.02;;;3.22;;
54428;SDS011;40337;52.978;6.310;2023-01-19T08:45:51;12.70;;;3.00;;
54428;SDS011;40337;52.978;6.310;2023-01-19T08:48:18;16.45;;;3.30;;
54428;SDS011;40337;52.978;6.310;2023-01-19T08:50:46;13.25;;;3.28;;
54428;SDS011;40337;52.978;6.310;2023-01-19T08:53:13;13.55;;;2.97;;
54428;SDS011;40337;52.978;6.310;2023-01-19T08:55:39;15.52;;;3.75;;
54428;SDS011;40337;52.978;6.310;2023-01-19T08:58:05;12.88;;;3.10;;
54428;SDS011;40337;52.978;6.310;2023-01-19T09:00:32;17.58;;;3.40;;
54428;SDS011;40337;52.978;6.310;2023-01-19T09:02:59;15.85;;;3.60;;
54428;SDS011;40337;52.978;6.310;2023-01-19T09:05:28;14.05;;;3.47;;
54428;SDS011;40337;52.978;6.310;2023-01-19T09:07:59;11.60;;;3.15;;
54428;SDS011;40337;52.978;6.310;2023-01-19T09:10:26;12.35;;;3.20;;
54428;SDS011;40337;52.978;6.310;2023-01-19T09:12:55;13.95;;;3.05;;
54428;SDS011;40337;52.978;6.310;2023-01-19T09:15:22;12.18;;;2.90;;
54428;SDS011;40337;52.978;6.310;2023-01-19T09:17:47;12.85;;;2.70;;
54428;SDS011;40337;52.978;6.310;2023-01-19T09:20:15;14.35;;;3.42;;
54428;SDS011;40337;52.978;6.310;2023-01-19T09:22:41;13.15;;;2.97;;
54428;SDS011;40337;52.978;6.310;2023-01-19T09:25:06;10.77;;;2.63;;
54428;SDS011;40337;52.978;6.310;2023-01-19T09:27:32;13.82;;;2.80;;
54428;SDS011;40337;52.978;6.310;2023-01-19T09:29:58;14.63;;;2.80;;
54428;SDS011;40337;52.978;6.310;2023-01-19T09:32:24;10.63;;;2.65;;
54428;SDS011;40337;52.978;6.310;2023-01-19T09:34:49;14.98;;;2.78;;
54428;SDS011;40337;52.978;6.310;2023-01-19T09:37:16;12.27;;;2.58;;
54428;SDS011;40337;52.978;6.310;2023-01-19T09:39:41;15.02;;;2.78;;
54428;SDS011;40337;52.978;6.310;2023-01-19T09:42:12;10.90;;;2.90;;
54428;SDS011;40337;52.978;6.310;2023-01-19T09:44:53;11.02;;;2.53;;
54428;SDS011;40337;52.978;6.310;2023-01-19T09:47:20;12.23;;;2.80;;
54428;SDS011;40337;52.978;6.310;2023-01-19T09:49:52;11.13;;;2.53;;
54428;SDS011;40337;52.978;6.310;2023-01-19T09:52:30;9.75;;;2.40;;
54428;SDS011;40337;52.978;6.310;2023-01-19T09:54:59;11.38;;;2.60;;
54428;SDS011;40337;52.978;6.310;2023-01-19T09:57:25;8.45;;;2.15;;
54428;SDS011;40337;52.978;6.310;2023-01-19T09:59:52;12.82;;;3.17;;
54428;SDS011;40337;52.978;6.310;2023-01-19T10:02:31;9.98;;;2.33;;
54428;SDS011;40337;52.978;6.310;2023-01-19T10:05:16;13.50;;;2.75;;
54428;SDS011;40337;52.978;6.310;2023-01-19T10:10:34;10.70;;;2.60;;
54428;SDS011;40337;52.978;6.310;2023-01-19T10:15:55;11.82;;;2.70;;
54428;SDS011;40337;52.978;6.310;2023-01-19T10:18:36;12.05;;;2.80;;
54428;SDS011;40337;52.978;6.310;2023-01-19T10:21:28;8.93;;;2.45;;
54428;SDS011;40337;52.978;6.310;2023-01-19T10:24:13;8.68;;;2.47;;
54428;SDS011;40337;52.978;6.310;2023-01-19T10:26:50;12.15;;;2.20;;
54428;SDS011;40337;52.978;6.310;2023-01-19T10:29:25;12.48;;;2.50;;
54428;SDS011;40337;52.978;6.310;2023-01-19T10:32:09;8.95;;;2.13;;
54428;SDS011;40337;52.978;6.310;2023-01-19T10:34:37;12.57;;;2.67;;
54428;SDS011;40337;52.978;6.310;2023-01-19T10:37:11;10.80;;;2.15;;
54428;SDS011;40337;52.978;6.310;2023-01-19T10:39:53;12.23;;;2.60;;
54428;SDS011;40337;52.978;6.310;2023-01-19T10:42:21;10.70;;;2.50;;
54428;SDS011;40337;52.978;6.310;2023-01-19T10:44:46;10.93;;;2.63;;
54428;SDS011;40337;52.978;6.310;2023-01-19T10:47:15;8.85;;;2.38;;
54428;SDS011;40337;52.978;6.310;2023-01-19T10:49:42;10.52;;;2.25;;
54428;SDS011;40337;52.978;6.310;2023-01-19T10:55:04;9.93;;;1.90;;
54428;SDS011;40337;52.978;6.310;2023-01-19T10:57:33;10.40;;;2.28;;
54428;SDS011;40337;52.978;6.310;2023-01-19T11:00:03;10.50;;;2.35;;
54428;SDS011;40337;52.978;6.310;2023-01-19T11:02:30;9.35;;;2.30;;
54428;SDS011;40337;52.978;6.310;2023-01-19T11:05:00;8.70;;;2.30;;
54428;SDS011;40337;52.978;6.310;2023-01-19T11:07:45;8.55;;;2.00;;
54428;SDS011;40337;52.978;6.310;2023-01-19T11:12:40;8.02;;;1.90;;
54428;SDS011;40337;52.978;6.310;2023-01-19T11:15:14;7.38;;;1.80;;
54428;SDS011;40337;52.978;6.310;2023-01-19T11:17:45;10.60;;;2.20;;
54428;SDS011;40337;52.978;6.310;2023-01-19T11:20:22;8.10;;;1.67;;
54428;SDS011;40337;52.978;6.310;2023-01-19T11:23:02;9.38;;;2.20;;
54428;SDS011;40337;52.978;6.310;2023-01-19T11:25:40;6.32;;;1.83;;
54428;SDS011;40337;52.978;6.310;2023-01-19T11:28:15;10.98;;;2.10;;
54428;SDS011;40337;52.978;6.310;2023-01-19T11:30:58;9.35;;;1.92;;
54428;SDS011;40337;52.978;6.310;2023-01-19T11:33:31;6.28;;;1.70;;
54428;SDS011;40337;52.978;6.310;2023-01-19T11:36:04;9.70;;;2.30;;
54428;SDS011;40337;52.978;6.310;2023-01-19T11:38:50;9.73;;;2.08;;
54428;SDS011;40337;52.978;6.310;2023-01-19T11:41:22;10.15;;;1.92;;
54428;SDS011;40337;52.978;6.310;2023-01-19T11:43:52;8.07;;;1.77;;
54428;SDS011;40337;52.978;6.310;2023-01-19T11:46:21;6.55;;;1.65;;
54428;SDS011;40337;52.978;6.310;2023-01-19T11:51:26;7.55;;;1.98;;
54428;SDS011;40337;52.978;6.310;2023-01-19T11:54:08;7.30;;;1.90;;
54428;SDS011;40337;52.978;6.310;2023-01-19T11:56:45;7.38;;;1.75;;
54428;SDS011;40337;52.978;6.310;2023-01-19T11:59:12;9.18;;;1.83;;
54428;SDS011;40337;52.978;6.310;2023-01-19T12:01:40;7.20;;;1.90;;
54428;SDS011;40337;52.978;6.310;2023-01-19T12:04:33;9.35;;;1.90;;
54428;SDS011;40337;52.978;6.310;2023-01-19T12:07:04;6.60;;;1.73;;
54428;SDS011;40337;52.978;6.310;2023-01-19T12:12:04;6.28;;;1.50;;
54428;SDS011;40337;52.978;6.310;2023-01-19T12:14:34;6.72;;;1.50;;
54428;SDS011;40337;52.978;6.310;2023-01-19T12:17:04;7.05;;;1.60;;
54428;SDS011;40337;52.978;6.310;2023-01-19T12:19:44;7.22;;;1.60;;
54428;SDS011;40337;52.978;6.310;2023-01-19T12:22:16;7.38;;;1.67;;
54428;SDS011;40337;52.978;6.310;2023-01-19T12:25:30;6.80;;;1.60;;
54428;SDS011;40337;52.978;6.310;2023-01-19T12:27:46;8.50;;;1.90;;
54428;SDS011;40337;52.978;6.310;2023-01-19T12:32:46;9.52;;;1.90;;
54428;SDS011;40337;52.978;6.310;2023-01-19T12:43:44;7.10;;;1.85;;
54428;SDS011;40337;52.978;6.310;2023-01-19T12:46:26;6.30;;;1.83;;
54428;SDS011;40337;52.978;6.310;2023-01-19T12:48:54;7.60;;;1.75;;
54428;SDS011;40337;52.978;6.310;2023-01-19T12:51:27;5.80;;;1.52;;
54428;SDS011;40337;52.978;6.310;2023-01-19T12:53:54;5.53;;;1.50;;
54428;SDS011;40337;52.978;6.310;2023-01-19T12:56:35;6.28;;;1.20;;
54428;SDS011;40337;52.978;6.310;2023-01-19T12:59:02;5.25;;;1.75;;
54428;SDS011;40337;52.978;6.310;2023-01-19T13:01:28;5.45;;;1.40;;
54428;SDS011;40337;52.978;6.310;2023-01-19T13:09:30;7.38;;;1.67;;
54428;SDS011;40337;52.978;6.310;2023-01-19T13:12:21;5.00;;;1.48;;
54428;SDS011;40337;52.978;6.310;2023-01-19T13:14:48;6.32;;;1.45;;
54428;SDS011;40337;52.978;6.310;2023-01-19T13:17:21;6.53;;;1.38;;
54428;SDS011;40337;52.978;6.310;2023-01-19T13:20:01;6.35;;;1.50;;
54428;SDS011;40337;52.978;6.310;2023-01-19T13:25:13;8.27;;;1.60;;
54428;SDS011;40337;52.978;6.310;2023-01-19T13:27:54;7.28;;;1.50;;
54428;SDS011;40337;52.978;6.310;2023-01-19T13:30:21;4.32;;;1.27;;
54428;SDS011;40337;52.978;6.310;2023-01-19T13:32:51;7.28;;;1.67;;
54428;SDS011;40337;52.978;6.310;2023-01-19T13:35:19;6.90;;;1.50;;
54428;SDS011;40337;52.978;6.310;2023-01-19T13:37:46;4.82;;;1.50;;
54428;SDS011;40337;52.978;6.310;2023-01-19T13:40:17;5.72;;;1.23;;
54428;SDS011;40337;52.978;6.310;2023-01-19T13:42:46;4.75;;;1.25;;
54428;SDS011;40337;52.978;6.310;2023-01-19T13:47:58;5.03;;;1.25;;
54428;SDS011;40337;52.978;6.310;2023-01-19T13:50:29;4.10;;;1.10;;
54428;SDS011;40337;52.978;6.310;2023-01-19T13:52:57;5.95;;;1.30;;
54428;SDS011;40337;52.978;6.310;2023-01-19T13:55:25;4.93;;;1.20;;
54428;SDS011;40337;52.978;6.310;2023-01-19T13:57:52;4.50;;;1.33;;
54428;SDS011;40337;52.978;6.310;2023-01-19T14:05:22;7.50;;;1.40;;
54428;SDS011;40337;52.978;6.310;2023-01-19T14:08:01;6.10;;;1.50;;
54428;SDS011;40337;52.978;6.310;2023-01-19T14:10:27;5.32;;;1.30;;
54428;SDS011;40337;52.978;6.310;2023-01-19T14:13:28;6.88;;;1.50;;
54428;SDS011;40337;52.978;6.310;2023-01-19T14:15:47;4.90;;;1.80;;
54428;SDS011;40337;52.978;6.310;2023-01-19T14:20:53;5.43;;;1.60;;
54428;SDS011;40337;52.978;6.310;2023-01-19T14:23:42;5.50;;;1.67;;
54428;SDS011;40337;52.978;6.310;2023-01-19T14:36:58;5.95;;;1.85;;
54428;SDS011;40337;52.978;6.310;2023-01-19T14:39:25;6.15;;;1.60;;
54428;SDS011;40337;52.978;6.310;2023-01-19T14:41:57;4.55;;;1.50;;
54428;SDS011;40337;52.978;6.310;2023-01-19T14:44:31;6.22;;;1.45;;
54428;SDS011;40337;52.978;6.310;2023-01-19T14:46:59;5.20;;;1.52;;
54428;SDS011;40337;52.978;6.310;2023-01-19T14:49:35;6.50;;;1.60;;
54428;SDS011;40337;52.978;6.310;2023-01-19T14:52:15;6.68;;;1.85;;
54428;SDS011;40337;52.978;6.310;2023-01-19T14:54:48;4.97;;;1.50;;
54428;SDS011;40337;52.978;6.310;2023-01-19T14:57:14;4.82;;;1.60;;
54428;SDS011;40337;52.978;6.310;2023-01-19T14:59:40;6.07;;;1.60;;
54428;SDS011;40337;52.978;6.310;2023-01-19T15:02:10;5.90;;;1.60;;
54428;SDS011;40337;52.978;6.310;2023-01-19T15:04:36;6.53;;;1.50;;
54428;SDS011;40337;52.978;6.310;2023-01-19T15:07:02;4.45;;;1.45;;
54428;SDS011;40337;52.978;6.310;2023-01-19T15:09:28;6.05;;;1.60;;
54428;SDS011;40337;52.978;6.310;2023-01-19T15:11:54;7.05;;;1.90;;
54428;SDS011;40337;52.978;6.310;2023-01-19T15:14:19;7.68;;;1.90;;
54428;SDS011;40337;52.978;6.310;2023-01-19T15:16:45;6.78;;;1.70;;
54428;SDS011;40337;52.978;6.310;2023-01-19T15:19:12;7.05;;;1.60;;
54428;SDS011;40337;52.978;6.310;2023-01-19T15:21:39;5.25;;;1.77;;
54428;SDS011;40337;52.978;6.310;2023-01-19T15:24:09;5.40;;;1.73;;
54428;SDS011;40337;52.978;6.310;2023-01-19T15:26:36;6.60;;;1.90;;
54428;SDS011;40337;52.978;6.310;2023-01-19T15:29:18;7.93;;;2.30;;
54428;SDS011;40337;52.978;6.310;2023-01-19T15:31:49;6.72;;;1.90;;
54428;SDS011;40337;52.978;6.310;2023-01-19T15:34:15;6.15;;;1.90;;
54428;SDS011;40337;52.978;6.310;2023-01-19T15:36:41;8.27;;;2.00;;
54428;SDS011;40337;52.978;6.310;2023-01-19T15:39:08;6.68;;;2.00;;
54428;SDS011;40337;52.978;6.310;2023-01-19T15:41:34;6.95;;;1.70;;
54428;SDS011;40337;52.978;6.310;2023-01-19T15:44:02;7.70;;;2.15;;
54428;SDS011;40337;52.978;6.310;2023-01-19T15:46:30;7.97;;;2.25;;
54428;SDS011;40337;52.978;6.310;2023-01-19T15:48:55;7.88;;;1.83;;
54428;SDS011;40337;52.978;6.310;2023-01-19T15:51:22;8.38;;;2.40;;
54428;SDS011;40337;52.978;6.310;2023-01-19T15:53:50;7.75;;;2.00;;
54428;SDS011;40337;52.978;6.310;2023-01-19T15:56:23;10.30;;;2.67;;
54428;SDS011;40337;52.978;6.310;2023-01-19T15:58:50;10.68;;;3.15;;
54428;SDS011;40337;52.978;6.310;2023-01-19T16:01:18;10.52;;;2.30;;
54428;SDS011;40337;52.978;6.310;2023-01-19T16:03:45;7.78;;;2.08;;
54428;SDS011;40337;52.978;6.310;2023-01-19T16:06:11;6.88;;;2.00;;
54428;SDS011;40337;52.978;6.310;2023-01-19T16:08:37;7.45;;;2.10;;
54428;SDS011;40337;52.978;6.310;2023-01-19T16:11:04;5.85;;;1.92;;
54428;SDS011;40337;52.978;6.310;2023-01-19T16:13:30;7.32;;;2.55;;